sensor_id;sensor_type;location;lat;lon;timestamp;pressure;altitude;pressure_sealevel;temperature;humidity
85244;BME280;75643;56.928;41.094;2024-03-17T06:44:00;100314.84;;;17.20;22.20
85244;BME280;75643;56.928;41.094;2024-03-17T06:46:34;100335.06;;;17.86;21.82
85244;BME280;75643;56.928;41.094;2024-03-17T06:52:06;100318.97;;;19.35;20.37
85244;BME280;75643;56.928;41.094;2024-03-17T06:54:32;100311.53;;;18.73;20.50
85244;BME280;75643;56.928;41.094;2024-03-17T06:56:59;100311.50;;;17.71;21.53
85244;BME280;75643;56.928;41.094;2024-03-17T06:59:27;100321.69;;;17.86;21.57
85244;BME280;75643;56.928;41.094;2024-03-17T07:01:53;100323.00;;;17.15;22.08
85244;BME280;75643;56.928;41.094;2024-03-17T07:04:19;100326.31;;;17.53;22.29
85244;BME280;75643;56.928;41.094;2024-03-17T07:06:46;100319.41;;;18.51;21.27
85244;BME280;75643;56.928;41.094;2024-03-17T07:09:13;100329.19;;;19.02;21.33
85244;BME280;75643;56.928;41.094;2024-03-17T07:11:39;100303.88;;;20.19;19.30
85244;BME280;75643;56.928;41.094;2024-03-17T07:14:06;100309.09;;;20.02;19.63
85244;BME280;75643;56.928;41.094;2024-03-17T07:16:33;100304.25;;;20.10;19.53
85244;BME280;75643;56.928;41.094;2024-03-17T07:19:01;100307.69;;;20.14;19.54
85244;BME280;75643;56.928;41.094;2024-03-17T07:21:29;100306.66;;;20.97;18.48
85244;BME280;75643;56.928;41.094;2024-03-17T07:23:55;100301.44;;;22.05;17.83
85244;BME280;75643;56.928;41.094;2024-03-17T07:26:21;100282.13;;;21.61;17.51
85244;BME280;75643;56.928;41.094;2024-03-17T07:28:47;100282.66;;;20.74;18.47
85244;BME280;75643;56.928;41.094;2024-03-17T07:31:15;100313.38;;;21.45;18.10
85244;BME280;75643;56.928;41.094;2024-03-17T07:33:41;100302.94;;;22.11;17.41
85244;BME280;75643;56.928;41.094;2024-03-17T07:36:09;100296.69;;;20.80;18.24
85244;BME280;75643;56.928;41.094;2024-03-17T07:38:37;100303.00;;;18.62;20.22
85244;BME280;75643;56.928;41.094;2024-03-17T07:41:05;100292.59;;;16.27;22.98
85244;BME280;75643;56.928;41.094;2024-03-17T07:43:34;100315.09;;;15.83;24.04
85244;BME280;75643;56.928;41.094;2024-03-17T07:46:08;100298.44;;;17.03;22.90
85244;BME280;75643;56.928;41.094;2024-03-17T07:48:36;100319.50;;;18.74;21.22
85244;BME280;75643;56.928;41.094;2024-03-17T07:51:07;100310.22;;;19.53;19.78
85244;BME280;75643;56.928;41.094;2024-03-17T07:53:39;100287.88;;;17.55;21.18
85244;BME280;75643;56.928;41.094;2024-03-17T07:56:10;100307.25;;;16.12;23.33
85244;BME280;75643;56.928;41.094;2024-03-17T07:58:38;100302.53;;;15.51;24.26
85244;BME280;75643;56.928;41.094;2024-03-17T08:01:06;100299.63;;;14.83;24.99
85244;BME280;75643;56.928;41.094;2024-03-17T08:03:34;100299.47;;;16.37;23.61
85244;BME280;75643;56.928;41.094;2024-03-17T08:06:02;100304.06;;;15.61;23.99
85244;BME280;75643;56.928;41.094;2024-03-17T08:08:28;100292.69;;;14.30;25.80
85244;BME280;75643;56.928;41.094;2024-03-17T08:10:55;100294.13;;;14.00;26.46
85244;BME280;75643;56.928;41.094;2024-03-17T08:13:22;100284.59;;;13.33;27.37
85244;BME280;75643;56.928;41.094;2024-03-17T08:16:00;100294.97;;;14.50;26.36
85244;BME280;75643;56.928;41.094;2024-03-17T08:18:27;100286.63;;;15.08;25.28
85244;BME280;75643;56.928;41.094;2024-03-17T08:20:54;100288.91;;;14.86;25.28
85244;BME280;75643;56.928;41.094;2024-03-17T08:23:24;100294.09;;;14.02;26.16
85244;BME280;75643;56.928;41.094;2024-03-17T08:25:57;100287.22;;;13.90;26.74
85244;BME280;75643;56.928;41.094;2024-03-17T08:28:25;100282.66;;;15.66;25.04
85244;BME280;75643;56.928;41.094;2024-03-17T08:30:57;100288.97;;;17.50;22.68
85244;BME280;75643;56.928;41.094;2024-03-17T08:33:24;100267.88;;;15.51;23.72
85244;BME280;75643;56.928;41.094;2024-03-17T08:36:03;100280.81;;;15.68;24.85
85244;BME280;75643;56.928;41.094;2024-03-17T08:38:32;100281.97;;;15.57;24.31
85244;BME280;75643;56.928;41.094;2024-03-17T08:41:06;100261.47;;;14.84;24.88
85244;BME280;75643;56.928;41.094;2024-03-17T08:43:33;100278.25;;;14.43;25.43
85244;BME280;75643;56.928;41.094;2024-03-17T08:46:06;100279.59;;;14.65;25.37
85244;BME280;75643;56.928;41.094;2024-03-17T08:48:38;100275.19;;;14.18;25.71
85244;BME280;75643;56.928;41.094;2024-03-17T08:51:07;100277.88;;;14.15;25.85
85244;BME280;75643;56.928;41.094;2024-03-17T08:53:34;100267.25;;;13.66;26.28
85244;BME280;75643;56.928;41.094;2024-03-17T08:56:03;100278.50;;;13.27;27.24
85244;BME280;75643;56.928;41.094;2024-03-17T08:58:32;100273.84;;;13.41;27.09
85244;BME280;75643;56.928;41.094;2024-03-17T09:01:03;100262.22;;;12.90;27.98
85244;BME280;75643;56.928;41.094;2024-03-17T09:03:30;100283.47;;;12.09;29.40
85244;BME280;75643;56.928;41.094;2024-03-17T09:05:56;100275.19;;;12.41;29.02
85244;BME280;75643;56.928;41.094;2024-03-17T09:08:24;100283.59;;;12.78;28.80
85244;BME280;75643;56.928;41.094;2024-03-17T09:10:53;100277.28;;;12.86;28.90
85244;BME280;75643;56.928;41.094;2024-03-17T09:13:24;100274.31;;;12.40;29.51
85244;BME280;75643;56.928;41.094;2024-03-17T09:27:35;100281.59;;;11.15;32.38
85244;BME280;75643;56.928;41.094;2024-03-17T09:30:05;100270.66;;;9.53;35.70
85244;BME280;75643;56.928;41.094;2024-03-17T09:32:39;100275.03;;;9.45;36.43
85244;BME280;75643;56.928;41.094;2024-03-17T09:35:07;100268.00;;;9.58;35.79
85244;BME280;75643;56.928;41.094;2024-03-17T09:37:33;100270.63;;;9.30;36.44
85244;BME280;75643;56.928;41.094;2024-03-17T09:40:00;100262.59;;;8.70;37.47
85244;BME280;75643;56.928;41.094;2024-03-17T09:42:27;100271.34;;;8.62;37.86
85244;BME280;75643;56.928;41.094;2024-03-17T09:44:54;100269.50;;;8.36;38.35
85244;BME280;75643;56.928;41.094;2024-03-17T09:47:24;100257.91;;;8.11;38.82
85244;BME280;75643;56.928;41.094;2024-03-17T09:49:52;100263.38;;;8.49;38.31
85244;BME280;75643;56.928;41.094;2024-03-17T09:52:22;100256.47;;;8.80;37.29
85244;BME280;75643;56.928;41.094;2024-03-17T09:54:55;100256.34;;;8.49;37.94
85244;BME280;75643;56.928;41.094;2024-03-17T09:57:25;100276.63;;;8.62;38.35
85244;BME280;75643;56.928;41.094;2024-03-17T09:59:52;100258.09;;;8.43;38.01
85244;BME280;75643;56.928;41.094;2024-03-17T10:02:19;100251.63;;;7.86;38.97
85244;BME280;75643;56.928;41.094;2024-03-17T10:04:46;100256.75;;;7.68;39.65
85244;BME280;75643;56.928;41.094;2024-03-17T10:07:13;100263.22;;;8.21;38.92
85244;BME280;75643;56.928;41.094;2024-03-17T10:09:43;100258.03;;;8.31;38.68
85244;BME280;75643;56.928;41.094;2024-03-17T10:12:29;100244.97;;;8.53;38.03
85244;BME280;75643;56.928;41.094;2024-03-17T10:14:59;100251.28;;;9.22;37.34
85244;BME280;75643;56.928;41.094;2024-03-17T10:17:31;100240.69;;;8.99;36.65
85244;BME280;75643;56.928;41.094;2024-03-17T10:20:11;100245.91;;;8.75;37.29
85244;BME280;75643;56.928;41.094;2024-03-17T10:22:39;100240.69;;;9.02;36.91
85244;BME280;75643;56.928;41.094;2024-03-17T10:25:08;100229.28;;;9.13;36.25
85244;BME280;75643;56.928;41.094;2024-03-17T10:27:43;100239.84;;;9.41;36.04
85244;BME280;75643;56.928;41.094;2024-03-17T10:30:17;100222.25;;;9.43;35.74
85244;BME280;75643;56.928;41.094;2024-03-17T10:32:51;100226.66;;;9.40;35.48
85244;BME280;75643;56.928;41.094;2024-03-17T10:35:47;100231.91;;;9.22;35.88
85244;BME280;75643;56.928;41.094;2024-03-17T10:38:15;100213.44;;;9.44;35.72
85244;BME280;75643;56.928;41.094;2024-03-17T10:40:41;100217.84;;;9.70;34.85
85244;BME280;75643;56.928;41.094;2024-03-17T10:43:10;100211.66;;;9.69;35.08
85244;BME280;75643;56.928;41.094;2024-03-17T10:45:36;100208.06;;;9.96;34.32
85244;BME280;75643;56.928;41.094;2024-03-17T10:48:07;100218.59;;;10.10;34.09
85244;BME280;75643;56.928;41.094;2024-03-17T10:50:39;100220.38;;;10.17;34.14
85244;BME280;75643;56.928;41.094;2024-03-17T10:53:06;100210.72;;;9.99;34.00
85244;BME280;75643;56.928;41.094;2024-03-17T10:55:46;100223.88;;;10.30;34.01
85244;BME280;75643;56.928;41.094;2024-03-17T10:58:33;100214.94;;;10.58;33.23
85244;BME280;75643;56.928;41.094;2024-03-17T11:01:01;100199.81;;;10.78;32.73
85244;BME280;75643;56.928;41.094;2024-03-17T11:03:32;100209.25;;;11.19;32.19
85244;BME280;75643;56.928;41.094;2024-03-17T11:06:02;100205.63;;;11.30;32.10
85244;BME280;75643;56.928;41.094;2024-03-17T11:08:33;100204.47;;;11.60;31.81
85244;BME280;75643;56.928;41.094;2024-03-17T11:11:00;100206.38;;;11.44;32.06
85244;BME280;75643;56.928;41.094;2024-03-17T11:13:27;100212.69;;;11.28;32.35
85244;BME280;75643;56.928;41.094;2024-03-17T11:15:55;100203.09;;;11.15;31.94
85244;BME280;75643;56.928;41.094;2024-03-17T11:21:19;100207.63;;;10.98;32.79
85244;BME280;75643;56.928;41.094;2024-03-17T11:23:59;100206.75;;;11.00;32.86
85244;BME280;75643;56.928;41.094;2024-03-17T12:27:26;100182.31;;;7.89;38.91
85244;BME280;75643;56.928;41.094;2024-03-17T12:29:55;100184.25;;;8.28;38.06
85244;BME280;75643;56.928;41.094;2024-03-17T12:32:25;100171.06;;;8.18;37.55
85244;BME280;75643;56.928;41.094;2024-03-17T12:34:54;100176.28;;;8.14;37.41
85244;BME280;75643;56.928;41.094;2024-03-17T12:37:23;100176.25;;;8.09;36.48
85244;BME280;75643;56.928;41.094;2024-03-17T12:40:00;100167.41;;;7.92;36.02
85244;BME280;75643;56.928;41.094;2024-03-17T12:42:29;100167.44;;;7.94;36.65
85244;BME280;75643;56.928;41.094;2024-03-17T12:45:09;100171.91;;;8.11;36.56
85244;BME280;75643;56.928;41.094;2024-03-17T12:47:36;100166.63;;;8.19;36.91
85244;BME280;75643;56.928;41.094;2024-03-17T12:50:11;100164.09;;;8.33;36.32
85244;BME280;75643;56.928;41.094;2024-03-17T12:52:43;100155.31;;;8.34;36.27
85244;BME280;75643;56.928;41.094;2024-03-17T12:55:20;100172.91;;;8.50;36.18
85244;BME280;75643;56.928;41.094;2024-03-17T12:58:06;100177.38;;;8.69;35.89
85244;BME280;75643;56.928;41.094;2024-03-17T13:01:01;100154.50;;;8.68;35.00
85244;BME280;75643;56.928;41.094;2024-03-17T13:03:35;100164.22;;;8.81;35.21
85244;BME280;75643;56.928;41.094;2024-03-17T13:06:04;100176.50;;;8.84;35.35
85244;BME280;75643;56.928;41.094;2024-03-17T13:08:34;100161.56;;;8.84;34.79
85244;BME280;75643;56.928;41.094;2024-03-17T13:11:02;100161.56;;;8.81;35.33
85244;BME280;75643;56.928;41.094;2024-03-17T13:13:31;100168.59;;;8.87;34.96
85244;BME280;75643;56.928;41.094;2024-03-17T13:15:58;100138.69;;;8.68;35.23
85244;BME280;75643;56.928;41.094;2024-03-17T13:18:26;100156.28;;;8.71;34.85
85244;BME280;75643;56.928;41.094;2024-03-17T13:20:53;100150.97;;;8.46;35.27
85244;BME280;75643;56.928;41.094;2024-03-17T13:23:20;100154.44;;;8.38;35.80
85244;BME280;75643;56.928;41.094;2024-03-17T13:25:51;100148.34;;;8.42;35.81
85244;BME280;75643;56.928;41.094;2024-03-17T13:28:18;100150.06;;;8.38;36.03
85244;BME280;75643;56.928;41.094;2024-03-17T13:30:45;100144.78;;;8.32;35.58
85244;BME280;75643;56.928;41.094;2024-03-17T13:33:13;100143.84;;;8.21;36.43
85244;BME280;75643;56.928;41.094;2024-03-17T13:35:40;100134.13;;;8.05;36.50
85244;BME280;75643;56.928;41.094;2024-03-17T13:38:08;100138.50;;;8.04;36.68
85244;BME280;75643;56.928;41.094;2024-03-17T13:40:39;100142.00;;;7.97;37.15
85244;BME280;75643;56.928;41.094;2024-03-17T13:43:07;100140.19;;;7.86;36.95
85244;BME280;75643;56.928;41.094;2024-03-17T13:45:40;100131.41;;;7.82;37.35
85244;BME280;75643;56.928;41.094;2024-03-17T13:48:08;100138.44;;;7.83;37.64
85244;BME280;75643;56.928;41.094;2024-03-17T13:50:39;100127.81;;;7.68;37.58
85244;BME280;75643;56.928;41.094;2024-03-17T13:53:11;100130.38;;;7.56;37.67
85244;BME280;75643;56.928;41.094;2024-03-17T13:55:38;100125.09;;;7.51;37.97
85244;BME280;75643;56.928;41.094;2024-03-17T13:58:04;100120.75;;;7.61;37.99
85244;BME280;75643;56.928;41.094;2024-03-17T14:00:32;100127.78;;;7.62;37.75
85244;BME280;75643;56.928;41.094;2024-03-17T14:03:02;100121.59;;;7.51;38.11
85244;BME280;75643;56.928;41.094;2024-03-17T14:05:28;100118.00;;;7.43;38.42
85244;BME280;75643;56.928;41.094;2024-03-17T14:07:55;100127.56;;;7.27;38.78
85244;BME280;75643;56.928;41.094;2024-03-17T14:10:24;100126.72;;;7.28;38.22
85244;BME280;75643;56.928;41.094;2024-03-17T14:12:51;100117.88;;;7.18;38.67
85244;BME280;75643;56.928;41.094;2024-03-17T14:15:17;100125.72;;;7.11;38.88
85244;BME280;75643;56.928;41.094;2024-03-17T14:17:45;100128.19;;;6.95;38.72
85244;BME280;75643;56.928;41.094;2024-03-17T14:20:13;100127.25;;;6.84;39.28
85244;BME280;75643;56.928;41.094;2024-03-17T14:22:41;100122.75;;;6.73;39.67
85244;BME280;75643;56.928;41.094;2024-03-17T14:25:15;100133.22;;;6.68;39.49
85244;BME280;75643;56.928;41.094;2024-03-17T14:27:42;100126.16;;;6.58;39.67
85244;BME280;75643;56.928;41.094;2024-03-17T14:30:10;100133.00;;;6.45;39.62
85244;BME280;75643;56.928;41.094;2024-03-17T14:32:39;100121.53;;;6.34;40.16
85244;BME280;75643;56.928;41.094;2024-03-17T14:39:40;100120.41;;;6.14;40.30
85244;BME280;75643;56.928;41.094;2024-03-17T14:42:07;100126.47;;;6.08;40.40
85244;BME280;75643;56.928;41.094;2024-03-17T14:44:36;100110.63;;;6.01;40.69
85244;BME280;75643;56.928;41.094;2024-03-17T14:47:03;100116.78;;;6.03;40.53
85244;BME280;75643;56.928;41.094;2024-03-17T14:49:33;100123.75;;;6.01;40.61
85244;BME280;75643;56.928;41.094;2024-03-17T14:52:01;100124.56;;;5.95;40.76
85244;BME280;75643;56.928;41.094;2024-03-17T14:54:27;100116.69;;;5.94;40.92
85244;BME280;75643;56.928;41.094;2024-03-17T14:56:54;100115.75;;;5.87;40.73
85244;BME280;75643;56.928;41.094;2024-03-17T14:59:20;100117.38;;;5.81;41.35
85244;BME280;75643;56.928;41.094;2024-03-17T15:01:47;100109.38;;;5.70;40.82
85244;BME280;75643;56.928;41.094;2024-03-17T15:04:16;100119.94;;;5.76;41.56
85244;BME280;75643;56.928;41.094;2024-03-17T15:06:45;100121.59;;;5.68;41.68
85244;BME280;75643;56.928;41.094;2024-03-17T15:09:11;100127.59;;;5.59;42.19
85244;BME280;75643;56.928;41.094;2024-03-17T15:11:45;100119.66;;;5.53;42.02
85244;BME280;75643;56.928;41.094;2024-03-17T15:14:15;100120.34;;;5.40;42.30
85244;BME280;75643;56.928;41.094;2024-03-17T15:16:41;100129.97;;;5.41;42.22
85244;BME280;75643;56.928;41.094;2024-03-17T15:19:09;100129.88;;;5.35;42.19
85244;BME280;75643;56.928;41.094;2024-03-17T15:21:36;100137.69;;;5.32;42.45
85244;BME280;75643;56.928;41.094;2024-03-17T15:24:04;100134.09;;;5.24;42.97
85244;BME280;75643;56.928;41.094;2024-03-17T15:26:33;100134.03;;;5.21;43.23
85244;BME280;75643;56.928;41.094;2024-03-17T15:28:59;100125.22;;;5.16;43.07
85244;BME280;75643;56.928;41.094;2024-03-17T15:31:30;100120.81;;;5.12;43.03
85244;BME280;75643;56.928;41.094;2024-03-17T15:33:57;100129.50;;;5.11;43.25
85244;BME280;75643;56.928;41.094;2024-03-17T15:36:25;100124.19;;;5.05;43.41
85244;BME280;75643;56.928;41.094;2024-03-17T15:38:51;100133.91;;;5.12;43.29
85244;BME280;75643;56.928;41.094;2024-03-17T15:41:18;100131.22;;;5.09;43.72
85244;BME280;75643;56.928;41.094;2024-03-17T15:43:44;100127.69;;;5.05;43.85
85244;BME280;75643;56.928;41.094;2024-03-17T15:46:16;100128.53;;;5.04;43.59
85244;BME280;75643;56.928;41.094;2024-03-17T15:48:45;100119.63;;;4.93;43.81
85244;BME280;75643;56.928;41.094;2024-03-17T15:51:12;100117.81;;;4.90;44.22
85244;BME280;75643;56.928;41.094;2024-03-17T15:53:39;100124.81;;;4.90;44.12
85244;BME280;75643;56.928;41.094;2024-03-17T15:56:05;100143.13;;;4.90;43.75
85244;BME280;75643;56.928;41.094;2024-03-17T15:58:32;100121.16;;;4.80;44.14
85244;BME280;75643;56.928;41.094;2024-03-17T16:01:05;100133.44;;;4.83;44.23
85244;BME280;75643;56.928;41.094;2024-03-17T16:03:34;100132.53;;;4.81;44.04
85244;BME280;75643;56.928;41.094;2024-03-17T16:06:07;100129.78;;;4.73;44.53
85244;BME280;75643;56.928;41.094;2024-03-17T16:08:50;100134.91;;;4.67;44.64
85244;BME280;75643;56.928;41.094;2024-03-17T16:11:23;100124.25;;;4.57;44.68
85244;BME280;75643;56.928;41.094;2024-03-17T16:13:55;100131.09;;;4.50;44.85
85244;BME280;75643;56.928;41.094;2024-03-17T16:16:23;100131.00;;;4.44;45.11
85244;BME280;75643;56.928;41.094;2024-03-17T16:18:55;100138.84;;;4.44;45.63
85244;BME280;75643;56.928;41.094;2024-03-17T16:21:22;100137.94;;;4.42;45.63
85244;BME280;75643;56.928;41.094;2024-03-17T16:26:20;100142.97;;;4.30;46.05
85244;BME280;75643;56.928;41.094;2024-03-17T16:28:48;100141.84;;;4.19;46.20
85244;BME280;75643;56.928;41.094;2024-03-17T16:31:15;100142.63;;;4.13;47.22
85244;BME280;75643;56.928;41.094;2024-03-17T16:33:43;100142.50;;;4.05;47.41
85244;BME280;75643;56.928;41.094;2024-03-17T16:36:10;100132.63;;;3.92;47.62
85244;BME280;75643;56.928;41.094;2024-03-17T16:38:36;100147.47;;;3.93;47.88
85244;BME280;75643;56.928;41.094;2024-03-17T16:41:05;100141.16;;;3.84;48.35
85244;BME280;75643;56.928;41.094;2024-03-17T16:44:19;100149.72;;;3.75;49.02
85244;BME280;75643;56.928;41.094;2024-03-17T16:49:35;100125.72;;;3.54;49.17
85244;BME280;75643;56.928;41.094;2024-03-17T16:52:04;100128.88;;;3.39;49.79
85244;BME280;75643;56.928;41.094;2024-03-17T16:54:30;100144.59;;;3.41;50.35
85244;BME280;75643;56.928;41.094;2024-03-17T16:57:05;100150.63;;;3.38;50.34
85244;BME280;75643;56.928;41.094;2024-03-17T16:59:32;100148.59;;;3.25;51.56
85244;BME280;75643;56.928;41.094;2024-03-17T17:01:59;100152.78;;;3.17;51.51
85244;BME280;75643;56.928;41.094;2024-03-17T17:04:26;100153.53;;;3.13;52.08
85244;BME280;75643;56.928;41.094;2024-03-17T17:06:53;100150.81;;;3.08;52.19
85244;BME280;75643;56.928;41.094;2024-03-17T17:09:22;100151.50;;;3.01;52.38
85244;BME280;75643;56.928;41.094;2024-03-17T17:11:51;100152.22;;;2.94;52.69
85244;BME280;75643;56.928;41.094;2024-03-17T17:14:19;100159.88;;;2.86;52.89
85244;BME280;75643;56.928;41.094;2024-03-17T17:16:48;100167.59;;;2.82;53.25
85244;BME280;75643;56.928;41.094;2024-03-17T17:19:15;100172.66;;;2.77;53.58
85244;BME280;75643;56.928;41.094;2024-03-17T17:21:41;100169.94;;;2.73;53.47
85244;BME280;75643;56.928;41.094;2024-03-17T17:24:18;100162.81;;;2.66;53.89
85244;BME280;75643;56.928;41.094;2024-03-17T17:26:46;100167.06;;;2.62;54.65
85244;BME280;75643;56.928;41.094;2024-03-17T17:29:14;100156.53;;;2.58;54.46
85244;BME280;75643;56.928;41.094;2024-03-17T17:31:48;100161.69;;;2.56;54.68
85244;BME280;75643;56.928;41.094;2024-03-17T17:34:14;100159.81;;;2.51;55.31
85244;BME280;75643;56.928;41.094;2024-03-17T17:36:41;100167.44;;;2.43;55.55
85244;BME280;75643;56.928;41.094;2024-03-17T17:39:10;100163.69;;;2.33;55.74
85244;BME280;75643;56.928;41.094;2024-03-17T17:41:39;100167.88;;;2.27;55.76
85244;BME280;75643;56.928;41.094;2024-03-17T17:44:06;100167.59;;;2.16;56.25
85244;BME280;75643;56.928;41.094;2024-03-17T17:46:32;100167.59;;;2.16;56.12
85244;BME280;75643;56.928;41.094;2024-03-17T17:48:58;100163.09;;;2.11;56.34
85244;BME280;75643;56.928;41.094;2024-03-17T17:51:25;100162.03;;;2.04;56.51
85244;BME280;75643;56.928;41.094;2024-03-17T17:53:53;100162.03;;;2.04;57.01
85244;BME280;75643;56.928;41.094;2024-03-17T17:56:20;100170.78;;;2.06;56.90
85244;BME280;75643;56.928;41.094;2024-03-17T17:58:48;100162.91;;;2.04;57.19
85244;BME280;75643;56.928;41.094;2024-03-17T18:01:20;100167.13;;;2.01;57.29
85244;BME280;75643;56.928;41.094;2024-03-17T18:03:47;100157.47;;;1.97;57.57
85244;BME280;75643;56.928;41.094;2024-03-17T18:06:20;100169.50;;;1.92;58.08
85244;BME280;75643;56.928;41.094;2024-03-17T18:08:47;100168.53;;;1.88;57.96
85244;BME280;75643;56.928;41.094;2024-03-17T18:11:16;100178.88;;;1.85;58.55
85244;BME280;75643;56.928;41.094;2024-03-17T18:13:48;100162.16;;;1.79;58.45
85244;BME280;75643;56.928;41.094;2024-03-17T18:16:15;100172.53;;;1.77;58.87
85244;BME280;75643;56.928;41.094;2024-03-17T18:18:43;100175.91;;;1.73;58.77
85244;BME280;75643;56.928;41.094;2024-03-17T18:21:11;100173.28;;;1.73;58.94
85244;BME280;75643;56.928;41.094;2024-03-17T18:23:40;100166.09;;;1.64;59.50
85244;BME280;75643;56.928;41.094;2024-03-17T18:26:13;100170.38;;;1.62;59.37
85244;BME280;75643;56.928;41.094;2024-03-17T18:28:42;100172.03;;;1.60;59.36
85244;BME280;75643;56.928;41.094;2024-03-17T18:31:11;100168.47;;;1.57;59.22
85244;BME280;75643;56.928;41.094;2024-03-17T18:33:40;100166.47;;;1.48;59.93
85244;BME280;75643;56.928;41.094;2024-03-17T18:36:10;100160.28;;;1.45;59.80
85244;BME280;75643;56.928;41.094;2024-03-17T18:38:38;100168.00;;;1.42;60.57
85244;BME280;75643;56.928;41.094;2024-03-17T18:41:09;100146.84;;;1.31;60.14
85244;BME280;75643;56.928;41.094;2024-03-17T18:43:38;100158.28;;;1.36;61.07
85244;BME280;75643;56.928;41.094;2024-03-17T18:46:19;100159.09;;;1.34;60.82
85244;BME280;75643;56.928;41.094;2024-03-17T18:48:49;100162.47;;;1.31;60.97
85244;BME280;75643;56.928;41.094;2024-03-17T18:51:18;100158.78;;;1.24;61.35
85244;BME280;75643;56.928;41.094;2024-03-17T18:53:51;100151.59;;;1.16;61.39
85244;BME280;75643;56.928;41.094;2024-03-17T18:56:19;100166.38;;;1.17;61.63
85244;BME280;75643;56.928;41.094;2024-03-17T18:58:46;100174.19;;;1.17;61.91
85244;BME280;75643;56.928;41.094;2024-03-17T19:01:14;100158.31;;;1.09;61.80
85244;BME280;75643;56.928;41.094;2024-03-17T19:03:40;100163.47;;;1.08;61.74
85244;BME280;75643;56.928;41.094;2024-03-17T19:06:10;100145.09;;;1.03;62.32
85244;BME280;75643;56.928;41.094;2024-03-17T19:08:37;100172.16;;;1.08;62.09
85244;BME280;75643;56.928;41.094;2024-03-17T19:16:51;100165.72;;;0.97;62.47
85244;BME280;75643;56.928;41.094;2024-03-17T19:19:18;100148.75;;;0.81;62.60
85244;BME280;75643;56.928;41.094;2024-03-17T19:21:47;100162.84;;;0.88;62.50
85244;BME280;75643;56.928;41.094;2024-03-17T19:24:21;100168.91;;;0.89;62.52
85244;BME280;75643;56.928;41.094;2024-03-17T19:26:48;100167.94;;;0.85;63.07
85244;BME280;75643;56.928;41.094;2024-03-17T19:29:14;100166.16;;;0.84;62.95
85244;BME280;75643;56.928;41.094;2024-03-17T19:31:41;100163.41;;;0.79;63.14
85244;BME280;75643;56.928;41.094;2024-03-17T19:34:07;100176.38;;;0.78;63.37
85244;BME280;75643;56.928;41.094;2024-03-17T19:36:36;100170.03;;;0.70;63.55
85244;BME280;75643;56.928;41.094;2024-03-17T19:39:04;100166.59;;;0.71;63.71
85244;BME280;75643;56.928;41.094;2024-03-17T19:41:31;100163.84;;;0.66;63.76
85244;BME280;75643;56.928;41.094;2024-03-17T19:44:02;100156.72;;;0.61;64.09
85244;BME280;75643;56.928;41.094;2024-03-17T19:46:28;100165.31;;;0.58;64.12
85244;BME280;75643;56.928;41.094;2024-03-17T19:48:55;100164.25;;;0.53;64.92
85244;BME280;75643;56.928;41.094;2024-03-17T19:51:23;100156.97;;;0.43;64.24
85244;BME280;75643;56.928;41.094;2024-03-17T19:53:51;100165.81;;;0.48;64.26
85244;BME280;75643;56.928;41.094;2024-03-17T19:56:17;100159.63;;;0.45;64.47
85244;BME280;75643;56.928;41.094;2024-03-17T19:58:46;100168.13;;;0.39;64.84
85244;BME280;75643;56.928;41.094;2024-03-17T20:01:13;100171.31;;;0.32;65.23
85244;BME280;75643;56.928;41.094;2024-03-17T20:03:40;100170.28;;;0.27;65.19
85244;BME280;75643;56.928;41.094;2024-03-17T20:06:16;100158.72;;;0.19;65.42
85244;BME280;75643;56.928;41.094;2024-03-17T20:08:43;100157.63;;;0.12;65.37
85244;BME280;75643;56.928;41.094;2024-03-17T20:11:09;100163.69;;;0.13;65.49
85244;BME280;75643;56.928;41.094;2024-03-17T20:13:36;100161.97;;;0.12;65.90
85244;BME280;75643;56.928;41.094;2024-03-17T20:16:02;100153.94;;;0.06;66.09
85244;BME280;75643;56.928;41.094;2024-03-17T20:18:30;100166.94;;;0.06;65.82
85244;BME280;75643;56.928;41.094;2024-03-17T20:20:59;100165.88;;;0.00;66.38
85244;BME280;75643;56.928;41.094;2024-03-17T20:23:26;100160.56;;;-0.03;66.34
85244;BME280;75643;56.928;41.094;2024-03-17T20:25:53;100170.75;;;-0.09;66.62
85244;BME280;75643;56.928;41.094;2024-03-17T20:28:19;100175.00;;;-0.11;67.04
85244;BME280;75643;56.928;41.094;2024-03-17T20:30:50;100160.66;;;-0.23;67.02
85244;BME280;75643;56.928;41.094;2024-03-17T20:38:49;100178.41;;;-0.35;67.52
85244;BME280;75643;56.928;41.094;2024-03-17T20:41:15;100189.50;;;-0.39;67.62
85244;BME280;75643;56.928;41.094;2024-03-17T20:43:42;100190.28;;;-0.42;68.34
85244;BME280;75643;56.928;41.094;2024-03-17T20:46:09;100179.91;;;-0.42;68.12
85244;BME280;75643;56.928;41.094;2024-03-17T20:51:33;100194.38;;;-0.47;68.41
85244;BME280;75643;56.928;41.094;2024-03-17T20:53:59;100189.09;;;-0.50;68.88
85244;BME280;75643;56.928;41.094;2024-03-17T20:56:26;100195.03;;;-0.53;68.68
85244;BME280;75643;56.928;41.094;2024-03-17T20:58:53;100197.53;;;-0.56;68.77
85244;BME280;75643;56.928;41.094;2024-03-17T21:01:19;100193.09;;;-0.58;69.34
85244;BME280;75643;56.928;41.094;2024-03-17T21:03:46;100176.88;;;-0.75;69.07
85244;BME280;75643;56.928;41.094;2024-03-17T21:06:12;100188.53;;;-0.65;69.38
85244;BME280;75643;56.928;41.094;2024-03-17T21:08:40;100188.56;;;-0.64;69.57
85244;BME280;75643;56.928;41.094;2024-03-17T21:11:07;100189.44;;;-0.63;69.61
85244;BME280;75643;56.928;41.094;2024-03-17T21:13:33;100198.25;;;-0.60;69.83
85244;BME280;75643;56.928;41.094;2024-03-17T21:16:00;100199.91;;;-0.62;69.96
85244;BME280;75643;56.928;41.094;2024-03-17T21:18:26;100193.75;;;-0.64;69.61
85244;BME280;75643;56.928;41.094;2024-03-17T21:21:01;100194.63;;;-0.63;69.83
85244;BME280;75643;56.928;41.094;2024-03-17T21:23:28;100206.78;;;-0.62;70.22